Flight Track Log - Related Links

Times and Time Zones

All times are in EDT time to prevent confusion due to time zone crossing. See the N137TK flight status page for this flight to view local times or setup timezone preferences in your user account.

Time Position Orientation Groundspeed Altitude Reporting Facility
EDT Latitude Longitude Course Direction KTS MPH feet Rate Location/Type
Mon 03:06:53 PM 30.0803 -82.5300 171° South 265 305 5,900  Level Jacksonville Center
Mon 03:07:53 PM 30.0300 -82.5208 171° South 213 245 8,000 2,150 Climbing Jacksonville Center
Mon 03:08:53 PM 29.9778 -82.4969 158° South 192 221 10,200 2,000 Climbing Jacksonville Center
Mon 03:09:53 PM 29.9297 -82.4708 155° Southeast 187 215 12,000 1,650 Climbing Jacksonville Center
Mon 03:10:53 PM 29.8775 -82.4469 158° South 193 222 13,500 1,400 Climbing Jacksonville Center
Mon 03:11:53 PM 29.8292 -82.4208 155° Southeast 198 228 14,800 1,350 Climbing Jacksonville Center
Mon 03:12:53 PM 29.7750 -82.3950 158° South 204 235 16,200 1,350 Climbing Jacksonville Center
Mon 03:13:53 PM 29.7183 -82.3689 158° South 211 243 17,500 1,150 Climbing Jacksonville Center
Mon 03:14:53 PM 29.6600 -82.3406 157° South 217 250 18,500 1,050 Climbing Jacksonville Center
Mon 03:15:53 PM 29.5972 -82.3097 157° South 228 262 19,600 1,200 Climbing Jacksonville Center
Mon 03:16:53 PM 29.5344 -82.2792 157° South 233 268 20,900 1,250 Climbing Jacksonville Center
Mon 03:17:53 PM 29.4758 -82.2486 156° South 233 268 22,100 1,050 Climbing Jacksonville Center
Mon 03:18:53 PM 29.4150 -82.2203 158° South 233 268 23,000 450 Climbing Jacksonville Center
Mon 03:19:53 PM 29.3461 -82.1875 157° South 246 283 23,000  Level Jacksonville Center
Mon 03:20:53 PM 29.2664 -82.1522 159° South 276 318 23,000  Level Jacksonville Center
Mon 03:21:52 PM 29.1889 -82.1147 157° South 296 341 23,000  Level Jacksonville Center
Mon 03:22:53 PM 29.1094 -82.0750 156° South 306 352 23,000  Level Jacksonville Center
Mon 03:23:52 PM 29.0297 -82.0353 156° South 311 358 23,000  Level Jacksonville Center
Mon 03:24:53 PM 28.9439 -81.9908 156° South 311 358 23,000  Level Jacksonville Center
Mon 03:25:53 PM 28.8664 -81.9561 159° South 311 358 23,000  Level Jacksonville Center
Mon 03:26:53 PM 28.7869 -81.9167 156° South 311 358 23,000  Level Jacksonville Center
Mon 03:27:53 PM 28.7053 -81.8794 158° South 311 358 23,000  Level Jacksonville Center
Mon 03:28:53 PM 28.6256 -81.8447 159° South 311 358 23,000  Level Jacksonville Center
Mon 03:29:52 PM 28.5481 -81.8103 159° South 311 358 23,000  Level Jacksonville Center
Mon 03:32:00 PM 28.3794 -81.7667 167° South 309 356 23,000  Level Miami Center
Mon 03:33:00 PM 28.2844 -81.7436 168° South 314 361 23,000  Level Miami Center
Mon 03:34:00 PM 28.2036 -81.7236 168° South 314 361 23,000 -400 Level Miami Center
Mon 03:35:00 PM 28.1167 -81.7033 168° South 314 361 22,200 -900 Descending Miami Center
Mon 03:36:00 PM 28.0256 -81.6806 168° South 319 367 21,200 -1,000 Descending Miami Center
Mon 03:37:00 PM 27.9325 -81.6581 168° South 332 382 20,200 -1,000 Descending Miami Center
Mon 03:38:00 PM 27.8392 -81.6375 169° South 340 391 19,200 -950 Descending Miami Center
Mon 03:39:00 PM 27.7464 -81.6103 165° South 345 397 18,300 -950 Descending Miami Center
Mon 03:40:00 PM 27.6633 -81.5903 168° South 345 397 17,300 -950 Descending Miami Center
Mon 03:41:00 PM 27.5714 -81.5936 182° South 345 397 16,400 -450 Descending Miami Center
Mon 03:42:00 PM 27.4897 -81.6042 187° South 327 376 16,400  Level Miami Center
Mon 03:43:00 PM 27.4081 -81.6150 187° South 308 354 16,400  Level Miami Center
Mon 03:44:00 PM 27.3306 -81.6256 187° South 290 334 16,400  Level Miami Center
Mon 03:45:00 PM 27.2528 -81.6364 187° South 290 334 16,400  Level Miami Center
Mon 03:46:00 PM 27.1669 -81.6469 186° South 290 334 16,400 -600 Level Miami Center
Mon 03:47:00 PM 27.0872 -81.6553 185° South 290 334 15,200 -1,350 Descending Miami Center
Mon 03:48:00 PM 27.0142 -81.6594 183° South 296 341 13,700 -1,450 Descending Miami Center
Mon 03:49:00 PM 26.9306 -81.6653 184° South 296 341 12,300 -1,400 Descending Miami Center
Mon 03:50:00 PM 26.8472 -81.6547 174° South 296 341 10,900 -1,350 Descending Miami Center
Mon 03:51:00 PM 26.7661 -81.6469 175° South 296 341 9,600 -1,300 Descending Miami Center
Mon 03:52:00 PM 26.6869 -81.6436 178° South 291 335 8,300 -1,300 Descending Miami Center
Mon 03:53:00 PM 26.6006 -81.6656 193° South 290 334 7,000 -1,200 Descending Miami Center
Mon 03:54:00 PM 26.5294 -81.6697 183° South 279 321 5,900 -1,100 Descending Miami Center
Mon 03:55:00 PM 26.4686 -81.6833 191° South 265 305 4,800 -1,000 Descending Miami Center
Mon 03:56:00 PM 26.4072 -81.7042 197° South 246 283 3,900 -900 Descending Miami Center
Mon 03:57:00 PM 26.3407 -81.7454 209° Southwest  Level FlightAware Approximate
Mon 04:04:00 PM 26.1500 -81.7667 185° South  Level FlightAware Approximate
Mon 04:05:00 PM 26.1524 -81.7756 185° South  Level Estimated
Mon 04:06:00 PM 26.1524 -81.7756 185° South  Level Estimated
Mon 04:07:00 PM 26.1524 -81.7756 185° South  Level Estimated

Login

Don't have an account? Register now (free) for customized features, flight alerts, and more!